Time;durP1;ratioP1;P1;durP2;ratioP2;P2;SDS_P1;SDS_P2;PMS_P1;PMS_P2;Temp;Humidity;BMP_temperature;BMP_pressure;BME280_temperature;BME280_humidity;BME280_pressure;Samples;Min_cycle;Max_cycle;Signal;HPM_P1;HPM_P2
2024/02/27 00:00:06;;;;;;;4.40;3.77;;;;;;;-146.29;100.00;59205.81;5028649;28;20183;-70
2024/02/27 00:02:31;;;;;;;3.00;2.70;;;;;;;-146.29;100.00;59205.81;5033596;28;20212;-69
2024/02/27 00:04:57;;;;;;;1.80;1.70;;;;;;;-146.29;100.00;59205.81;5028553;28;20426;-69
2024/02/27 00:07:25;;;;;;;4.80;3.57;;;;;;;-146.29;100.00;59205.81;5032830;28;20176;-72
2024/02/27 00:09:51;;;;;;;2.50;2.13;;;;;;;-146.29;100.00;59205.81;5028036;28;20191;-69
2024/02/27 00:12:16;;;;;;;2.23;2.00;;;;;;;-146.29;100.00;59205.81;5029531;28;21133;-71
2024/02/27 00:14:42;;;;;;;5.63;3.73;;;;;;;-146.29;100.00;59205.81;5004992;28;20190;-70
2024/02/27 00:17:07;;;;;;;2.50;2.30;;;;;;;-146.29;100.00;59205.81;5030120;28;20220;-70
2024/02/27 00:19:32;;;;;;;5.03;4.20;;;;;;;-146.29;100.00;59205.81;5028858;28;20176;-70
2024/02/27 00:21:58;;;;;;;3.20;2.63;;;;;;;-146.29;100.00;59205.81;5030463;28;20199;-71
2024/02/27 00:24:23;;;;;;;4.50;4.00;;;;;;;-146.29;100.00;59205.81;5036979;28;20211;-70
2024/02/27 00:26:49;;;;;;;2.40;2.20;;;;;;;-146.29;100.00;59205.81;5027561;28;20275;-71
2024/02/27 00:29:14;;;;;;;3.10;2.50;;;;;;;-146.29;100.00;59205.81;5036227;28;20581;-71
2024/02/27 00:31:40;;;;;;;7.40;4.70;;;;;;;-146.29;100.00;59205.81;5035397;28;20188;-69
2024/02/27 00:34:05;;;;;;;3.10;2.33;;;;;;;-146.29;100.00;59205.81;5027847;28;20183;-71
2024/02/27 00:36:31;;;;;;;4.90;3.70;;;;;;;-146.29;100.00;59205.81;5028936;28;20284;-68
2024/02/27 00:38:56;;;;;;;2.37;2.00;;;;;;;-146.29;100.00;59205.81;5027753;28;20183;-69
2024/02/27 00:41:22;;;;;;;3.00;2.70;;;;;;;-146.29;100.00;59205.81;5035998;28;20218;-72
2024/02/27 00:43:47;;;;;;;9.73;4.63;;;;;;;-146.29;100.00;59205.81;5040654;28;20222;-68
2024/02/27 00:46:13;;;;;;;2.17;1.90;;;;;;;-146.29;100.00;59205.81;5030815;28;20291;-69
2024/02/27 00:48:38;;;;;;;2.97;1.30;;;;;;;-146.29;100.00;59205.81;5039688;28;20186;-70
2024/02/27 00:51:04;;;;;;;1.73;1.50;;;;;;;-146.29;100.00;59205.81;5029240;28;20187;-69
2024/02/27 00:53:29;;;;;;;2.07;1.97;;;;;;;-146.29;100.00;59205.81;5025766;28;20176;-70
2024/02/27 00:55:55;;;;;;;2.53;1.30;;;;;;;-146.29;100.00;59205.81;5034564;28;20740;-68
2024/02/27 00:58:22;;;;;;;3.80;3.10;;;;;;;-146.29;100.00;59205.81;5044344;28;20269;-70
2024/02/27 01:00:48;;;;;;;2.30;2.00;;;;;;;-146.29;100.00;59205.81;5044192;28;20183;-70
2024/02/27 01:03:13;;;;;;;4.93;4.40;;;;;;;-146.29;100.00;59205.81;5031865;28;21166;-71
2024/02/27 01:05:39;;;;;;;2.23;1.80;;;;;;;-146.29;100.00;59205.81;5030563;28;20287;-69
2024/02/27 01:08:05;;;;;;;6.83;4.40;;;;;;;-146.29;100.00;59205.81;5028060;28;20606;-71
2024/02/27 01:10:30;;;;;;;1.50;1.40;;;;;;;-146.29;100.00;59205.81;5033557;28;20187;-69
2024/02/27 01:12:55;;;;;;;4.17;1.47;;;;;;;-146.29;100.00;59205.81;5035429;28;20315;-67
2024/02/27 01:15:21;;;;;;;7.70;5.23;;;;;;;-146.29;100.00;59205.81;5032305;28;20671;-69
2024/02/27 01:17:46;;;;;;;2.50;2.30;;;;;;;-146.29;100.00;59205.81;5031026;28;20204;-68
2024/02/27 01:20:12;;;;;;;3.10;2.63;;;;;;;-146.29;100.00;59205.81;5023438;28;20176;-68
2024/02/27 01:22:38;;;;;;;3.93;2.87;;;;;;;-146.29;100.00;59205.81;5030333;28;20275;-68
2024/02/27 01:25:03;;;;;;;5.00;3.80;;;;;;;-146.29;100.00;59205.81;5036141;28;20205;-69
2024/02/27 01:27:29;;;;;;;4.60;3.50;;;;;;;-146.29;100.00;59205.81;4993824;28;20172;-69
2024/02/27 01:29:56;;;;;;;1.90;1.70;;;;;;;-146.29;100.00;59205.81;5043423;28;20222;-68
2024/02/27 01:32:21;;;;;;;4.10;2.90;;;;;;;-146.29;100.00;59205.81;5027888;28;20848;-68
2024/02/27 01:34:47;;;;;;;3.20;2.90;;;;;;;-146.29;100.00;59205.81;5023118;28;20414;-69
2024/02/27 01:37:12;;;;;;;3.17;1.67;;;;;;;-146.29;100.00;59205.81;5027445;28;20206;-68
2024/02/27 01:39:38;;;;;;;1.60;1.40;;;;;;;-146.29;100.00;59205.81;5034428;28;20598;-68
2024/02/27 01:42:04;;;;;;;2.10;1.90;;;;;;;-146.29;100.00;59205.81;5027575;28;20806;-68
2024/02/27 01:44:29;;;;;;;1.33;1.23;;;;;;;-146.29;100.00;59205.81;5027621;28;20653;-68
2024/02/27 01:46:55;;;;;;;2.23;1.40;;;;;;;-146.29;100.00;59205.81;5032307;28;20202;-69
2024/02/27 01:49:21;;;;;;;1.70;1.60;;;;;;;-146.29;100.00;59205.81;5031154;28;20263;-68
2024/02/27 01:51:48;;;;;;;2.30;2.10;;;;;;;-146.29;100.00;59205.81;5031468;28;20506;-69
2024/02/27 01:54:16;;;;;;;1.97;1.77;;;;;;;-146.29;100.00;59205.81;5038980;28;20183;-69
2024/02/27 01:56:41;;;;;;;1.77;1.53;;;;;;;-146.29;100.00;59205.81;5043510;28;20461;-69
2024/02/27 01:59:07;;;;;;;1.97;1.50;;;;;;;-146.29;100.00;59205.81;5032375;28;20430;-70
2024/02/27 02:01:34;;;;;;;2.10;1.90;;;;;;;-146.29;100.00;59205.81;5029920;28;20219;-70
2024/02/27 02:04:00;;;;;;;2.03;1.83;;;;;;;-146.29;100.00;59205.81;5031630;28;20430;-71
2024/02/27 02:06:26;;;;;;;2.40;1.97;;;;;;;-146.29;100.00;59205.81;5030881;28;20530;-69
2024/02/27 02:08:52;;;;;;;2.90;2.10;;;;;;;-146.29;100.00;59205.81;5031022;28;20426;-71
2024/02/27 02:11:17;;;;;;;2.50;2.30;;;;;;;-146.29;100.00;59205.81;5034977;28;20264;-71
2024/02/27 02:13:43;;;;;;;2.20;2.00;;;;;;;-146.29;100.00;59205.81;5038778;28;21245;-70
2024/02/27 02:16:08;;;;;;;3.17;2.30;;;;;;;-146.29;100.00;59205.81;5033447;28;20200;-68
2024/02/27 02:18:34;;;;;;;2.20;2.00;;;;;;;-146.29;100.00;59205.81;5031363;28;20178;-69
2024/02/27 02:21:00;;;;;;;2.73;2.10;;;;;;;-146.29;100.00;59205.81;5035090;28;20202;-70
2024/02/27 02:23:25;;;;;;;2.30;2.10;;;;;;;-146.29;100.00;59205.81;5036462;28;20180;-70
2024/02/27 02:25:51;;;;;;;3.00;2.20;;;;;;;-146.29;100.00;59205.81;5016449;28;20520;-69
2024/02/27 02:28:16;;;;;;;5.70;3.07;;;;;;;-146.29;100.00;59205.81;5052077;28;20209;-69
2024/02/27 02:30:42;;;;;;;2.50;2.30;;;;;;;-146.29;100.00;59205.81;5038663;28;20246;-70
2024/02/27 02:33:10;;;;;;;7.00;2.50;;;;;;;-146.29;100.00;59205.81;5038716;28;20206;-70
2024/02/27 02:35:35;;;;;;;4.40;3.43;;;;;;;-146.29;100.00;59205.81;5049899;28;20203;-69
2024/02/27 02:38:01;;;;;;;4.10;3.30;;;;;;;-146.29;100.00;59205.81;5065640;28;20509;-72
2024/02/27 02:40:26;;;;;;;4.40;3.47;;;;;;;-146.29;100.00;59205.81;5042458;28;20183;-72
2024/02/27 02:42:52;;;;;;;4.40;3.53;;;;;;;-146.29;100.00;59205.81;5042785;28;20194;-69
2024/02/27 02:45:17;;;;;;;5.40;4.00;;;;;;;-146.29;100.00;59205.81;5023876;28;20179;-69
2024/02/27 02:47:43;;;;;;;4.57;4.00;;;;;;;-146.29;100.00;59205.81;5026079;28;20187;-70
2024/02/27 02:50:09;;;;;;;5.03;4.10;;;;;;;-146.29;100.00;59205.81;5027927;28;20185;-71
2024/02/27 02:52:35;;;;;;;5.03;4.53;;;;;;;-146.29;100.00;59205.81;5027337;28;20507;-69
2024/02/27 02:55:02;;;;;;;5.47;4.30;;;;;;;-146.29;100.00;59205.81;5031119;28;20179;-68
2024/02/27 02:57:29;;;;;;;4.93;4.10;;;;;;;-146.29;100.00;59205.81;5034049;28;20519;-70
2024/02/27 02:59:54;;;;;;;4.97;4.10;;;;;;;-146.29;100.00;59205.81;5030585;28;20422;-71
2024/02/27 03:02:20;;;;;;;5.90;4.37;;;;;;;-146.29;100.00;59205.81;5038924;28;20851;-71
2024/02/27 03:04:45;;;;;;;6.13;4.73;;;;;;;-146.29;100.00;59205.81;5038569;28;20259;-69
2024/02/27 03:07:11;;;;;;;7.10;5.00;;;;;;;-146.29;100.00;59205.81;5029980;28;20214;-69
2024/02/27 03:09:37;;;;;;;4.83;4.10;;;;;;;-146.29;100.00;59205.81;5025111;28;20191;-69
2024/02/27 03:12:02;;;;;;;5.07;4.50;;;;;;;-146.29;100.00;59205.81;5030079;28;20892;-71
2024/02/27 03:14:28;;;;;;;5.90;4.67;;;;;;;-146.29;100.00;59205.81;5039072;28;20722;-70
2024/02/27 03:16:54;;;;;;;6.30;5.23;;;;;;;-146.29;100.00;59205.81;5028669;28;20207;-70
2024/02/27 03:19:19;;;;;;;6.80;5.10;;;;;;;-146.29;100.00;59205.81;5029287;28;20184;-70
2024/02/27 03:21:45;;;;;;;6.27;5.63;;;;;;;-146.29;100.00;59205.81;5032100;28;20187;-70
2024/02/27 03:24:10;;;;;;;6.17;5.27;;;;;;;-146.29;100.00;59205.81;5038106;28;20194;-70
2024/02/27 03:26:36;;;;;;;8.40;5.27;;;;;;;-146.29;100.00;59205.81;5030014;28;20196;-68
2024/02/27 03:29:02;;;;;;;7.33;5.97;;;;;;;-146.29;100.00;59205.81;5036993;28;20179;-70
2024/02/27 03:31:28;;;;;;;7.27;5.97;;;;;;;-146.29;100.00;59205.81;5028270;28;20190;-69
2024/02/27 03:33:53;;;;;;;8.00;6.07;;;;;;;-146.29;100.00;59205.81;5029699;28;20419;-69
2024/02/27 03:36:18;;;;;;;6.97;6.00;;;;;;;-146.29;100.00;59205.81;5033717;28;20857;-68
2024/02/27 03:38:44;;;;;;;9.33;5.63;;;;;;;-146.29;100.00;59205.81;5029766;28;20186;-68
2024/02/27 03:41:13;;;;;;;7.20;6.23;;;;;;;-146.29;100.00;59205.81;5027994;28;20196;-70
2024/02/27 03:43:42;;;;;;;8.70;5.73;;;;;;;-146.29;100.00;59205.81;5029391;28;20245;-68
2024/02/27 03:46:08;;;;;;;7.40;6.10;;;;;;;-146.29;100.00;59205.81;5027880;28;20449;-68
2024/02/27 03:48:34;;;;;;;8.27;6.10;;;;;;;-146.29;100.00;59205.81;5028565;28;20418;-69
2024/02/27 03:50:59;;;;;;;10.10;5.90;;;;;;;-146.29;100.00;59205.81;5047463;28;20414;-68
2024/02/27 03:53:30;;;;;;;9.07;5.97;;;;;;;-146.29;100.00;59205.81;5036251;28;20299;-69
2024/02/27 03:55:56;;;;;;;9.30;7.10;;;;;;;-146.29;100.00;59205.81;5033724;28;20199;-71
2024/02/27 03:58:21;;;;;;;8.13;6.63;;;;;;;-146.29;100.00;59205.81;5029243;28;20481;-69
2024/02/27 04:00:47;;;;;;;10.20;7.10;;;;;;;-146.29;100.00;59205.81;5028986;28;20184;-69
2024/02/27 04:03:12;;;;;;;8.50;7.00;;;;;;;-146.29;100.00;59205.81;5028836;28;20191;-69
2024/02/27 04:05:38;;;;;;;8.30;6.00;;;;;;;-146.29;100.00;59205.81;5037309;28;20196;-68
2024/02/27 04:08:08;;;;;;;7.97;6.67;;;;;;;-146.29;100.00;59205.81;5028391;28;20329;-69
2024/02/27 04:10:36;;;;;;;10.13;6.47;;;;;;;-146.29;100.00;59205.81;5027488;28;20648;-68
2024/02/27 04:13:02;;;;;;;8.53;6.83;;;;;;;-146.29;100.00;59205.81;5027851;28;20423;-69
2024/02/27 04:15:28;;;;;;;9.30;6.63;;;;;;;-146.29;100.00;59205.81;5029216;28;20469;-70
2024/02/27 04:17:54;;;;;;;11.13;6.80;;;;;;;-146.29;100.00;59205.81;5029117;28;20290;-69
2024/02/27 04:20:20;;;;;;;8.13;6.53;;;;;;;-146.29;100.00;59205.81;5028966;28;20195;-69
2024/02/27 04:22:45;;;;;;;9.70;6.70;;;;;;;-146.29;100.00;59205.81;5036121;28;20410;-68
2024/02/27 04:25:11;;;;;;;10.60;6.90;;;;;;;-146.29;100.00;59205.81;5024257;28;20514;-68
2024/02/27 04:27:36;;;;;;;11.70;7.43;;;;;;;-146.29;100.00;59205.81;5028742;28;20254;-68
2024/02/27 04:30:04;;;;;;;10.37;6.90;;;;;;;-146.29;100.00;59205.81;5028932;28;20271;-69
2024/02/27 04:32:29;;;;;;;9.87;6.93;;;;;;;-146.29;100.00;59205.81;5036458;28;20199;-69
2024/02/27 04:34:55;;;;;;;10.20;7.17;;;;;;;-146.29;100.00;59205.81;5026153;28;20460;-69
2024/02/27 04:37:20;;;;;;;10.30;7.10;;;;;;;-146.29;100.00;59205.81;5045468;28;20211;-68
2024/02/27 04:39:46;;;;;;;9.90;7.57;;;;;;;-146.29;100.00;59205.81;5026219;28;20265;-68
2024/02/27 04:42:11;;;;;;;9.83;7.70;;;;;;;-146.29;100.00;59205.81;5027164;28;20182;-71
2024/02/27 04:44:37;;;;;;;10.13;7.10;;;;;;;-146.29;100.00;59205.81;5028434;28;20356;-68
2024/02/27 04:47:04;;;;;;;10.83;8.03;;;;;;;-146.29;100.00;59205.81;5029958;28;20249;-68
2024/02/27 04:49:31;;;;;;;11.00;7.10;;;;;;;-146.29;100.00;59205.81;5028601;28;20183;-69
2024/02/27 04:51:56;;;;;;;10.53;7.30;;;;;;;-146.29;100.00;59205.81;5015185;28;20450;-69
2024/02/27 04:54:22;;;;;;;14.50;8.67;;;;;;;-146.29;100.00;59205.81;5026600;28;20498;-68
2024/02/27 04:56:47;;;;;;;12.43;8.67;;;;;;;-146.29;100.00;59205.81;5027814;28;20208;-71
2024/02/27 04:59:13;;;;;;;10.03;7.80;;;;;;;-146.29;100.00;59205.81;5028278;28;20837;-69
2024/02/27 05:01:38;;;;;;;12.40;8.20;;;;;;;-146.29;100.00;59205.81;5026425;28;20190;-70
2024/02/27 05:04:03;;;;;;;12.60;8.40;;;;;;;-146.29;100.00;59205.81;5028980;28;20202;-70
2024/02/27 05:06:29;;;;;;;12.27;8.20;;;;;;;-146.29;100.00;59205.81;5037118;28;20203;-71
2024/02/27 05:08:54;;;;;;;10.97;7.83;;;;;;;-146.29;100.00;59205.81;5034590;28;20266;-68
2024/02/27 05:11:20;;;;;;;12.10;8.07;;;;;;;-146.29;100.00;59205.81;5035064;28;20551;-68
2024/02/27 05:13:45;;;;;;;9.03;7.33;;;;;;;-146.29;100.00;59205.81;5022354;28;20302;-69
2024/02/27 05:16:11;;;;;;;11.30;7.97;;;;;;;-146.29;100.00;59205.81;5026142;28;20241;-69
2024/02/27 05:18:36;;;;;;;15.00;8.37;;;;;;;-146.29;100.00;59205.81;5027509;28;20214;-70
2024/02/27 05:21:05;;;;;;;11.67;8.57;;;;;;;-146.29;100.00;59205.81;5032351;28;20183;-69
2024/02/27 05:23:33;;;;;;;11.87;8.60;;;;;;;-146.29;100.00;59205.81;5041601;28;20192;-69
2024/02/27 05:25:58;;;;;;;16.87;8.50;;;;;;;-146.29;100.00;59205.81;5031619;28;20857;-70
2024/02/27 05:28:25;;;;;;;10.77;8.00;;;;;;;-146.29;100.00;59205.81;5031237;28;20422;-70
2024/02/27 05:30:53;;;;;;;11.43;8.33;;;;;;;-146.29;100.00;59205.81;5029173;28;20191;-70
2024/02/27 05:33:19;;;;;;;14.53;9.60;;;;;;;-146.29;100.00;59205.81;5040072;28;20438;-70
2024/02/27 05:35:45;;;;;;;11.27;8.53;;;;;;;-146.29;100.00;59205.81;5031085;28;20515;-70
2024/02/27 05:38:10;;;;;;;10.80;8.60;;;;;;;-146.29;100.00;59205.81;5032301;28;20608;-70
2024/02/27 05:40:36;;;;;;;12.40;8.63;;;;;;;-146.29;100.00;59205.81;5030729;28;20683;-71
2024/02/27 05:43:01;;;;;;;12.40;9.17;;;;;;;-146.29;100.00;59205.81;5032181;28;20184;-70
2024/02/27 05:45:27;;;;;;;11.77;8.60;;;;;;;-146.29;100.00;59205.81;5031100;28;20195;-68
2024/02/27 05:47:52;;;;;;;13.67;8.63;;;;;;;-146.29;100.00;59205.81;5030283;28;20751;-71
2024/02/27 05:50:17;;;;;;;14.00;9.67;;;;;;;-146.29;100.00;59205.81;5044654;28;20195;-70
2024/02/27 05:52:43;;;;;;;14.40;9.20;;;;;;;-146.29;100.00;59205.81;5041721;28;20191;-71
2024/02/27 05:55:08;;;;;;;13.03;8.83;;;;;;;-146.29;100.00;59205.81;5037380;28;20205;-69
2024/02/27 05:57:34;;;;;;;18.30;9.40;;;;;;;-146.29;100.00;59205.81;5032306;28;20211;-70
2024/02/27 05:59:59;;;;;;;15.43;9.43;;;;;;;-146.29;100.00;59205.81;5031074;28;20696;-69
2024/02/27 06:02:25;;;;;;;16.20;9.83;;;;;;;-146.29;100.00;59205.81;5030317;28;20226;-70
2024/02/27 06:04:51;;;;;;;12.70;9.40;;;;;;;-146.29;100.00;59205.81;5031072;28;20721;-69
2024/02/27 06:07:16;;;;;;;13.10;9.57;;;;;;;-146.29;100.00;59205.81;5038427;28;20203;-70
2024/02/27 06:09:42;;;;;;;14.20;9.90;;;;;;;-146.29;100.00;59205.81;5029461;28;20184;-69
2024/02/27 06:12:07;;;;;;;15.97;10.40;;;;;;;-146.29;100.00;59205.81;5035229;28;20194;-68
2024/02/27 06:14:32;;;;;;;14.70;9.70;;;;;;;-146.29;100.00;59205.81;5030996;28;20188;-70
2024/02/27 06:16:58;;;;;;;16.57;11.17;;;;;;;-146.29;100.00;59205.81;5021009;28;20212;-71
2024/02/27 06:19:26;;;;;;;15.00;10.27;;;;;;;-146.29;100.00;59205.81;5022055;28;20308;-71
2024/02/27 06:22:10;;;;;;;17.50;11.33;;;;;;;-146.29;100.00;59205.81;5023578;28;20183;-68
2024/02/27 06:24:38;;;;;;;16.03;11.20;;;;;;;-146.29;100.00;59205.81;5027551;28;20426;-69
2024/02/27 06:27:04;;;;;;;14.57;10.83;;;;;;;-146.29;100.00;59205.81;5029061;28;20454;-67
2024/02/27 06:29:30;;;;;;;16.10;10.50;;;;;;;-146.29;100.00;59205.81;5028951;28;20430;-70
2024/02/27 06:31:55;;;;;;;16.37;10.87;;;;;;;-146.29;100.00;59205.81;5028690;28;20214;-69
2024/02/27 06:34:21;;;;;;;14.87;10.17;;;;;;;-146.29;100.00;59205.81;5030475;28;20199;-68
2024/02/27 06:36:48;;;;;;;17.30;11.83;;;;;;;-146.29;100.00;59205.81;5029463;28;20731;-68
2024/02/27 06:39:13;;;;;;;15.60;10.73;;;;;;;-146.29;100.00;59205.81;5028806;28;20623;-66
2024/02/27 06:41:38;;;;;;;16.53;11.40;;;;;;;-146.29;100.00;59205.81;5028303;28;20517;-68
2024/02/27 06:44:05;;;;;;;15.20;11.37;;;;;;;-146.29;100.00;59205.81;5028656;28;20832;-69
2024/02/27 06:46:30;;;;;;;22.23;11.47;;;;;;;-146.29;100.00;59205.81;5032226;28;20200;-69
2024/02/27 06:48:57;;;;;;;17.70;11.70;;;;;;;-146.29;100.00;59205.81;5031722;28;20966;-68
2024/02/27 06:51:22;;;;;;;20.53;13.13;;;;;;;-146.29;100.00;59205.81;5012123;28;20196;-68
2024/02/27 06:53:48;;;;;;;18.77;12.30;;;;;;;-146.29;100.00;59205.81;5028543;28;20516;-67
2024/02/27 06:56:14;;;;;;;15.77;11.83;;;;;;;-146.29;100.00;59205.81;5029542;28;20250;-66
2024/02/27 06:58:39;;;;;;;17.93;12.10;;;;;;;-146.29;100.00;59205.81;5029849;28;20184;-69
2024/02/27 07:01:05;;;;;;;22.03;12.73;;;;;;;-146.29;100.00;59205.81;5035845;28;20422;-67
2024/02/27 07:03:31;;;;;;;18.50;12.50;;;;;;;-146.29;100.00;59205.81;5028307;28;20309;-67
2024/02/27 07:05:59;;;;;;;17.80;12.67;;;;;;;-146.29;100.00;59205.81;5028350;28;20253;-69
2024/02/27 07:08:25;;;;;;;19.10;13.30;;;;;;;-146.29;100.00;59205.81;5030512;28;20575;-68
2024/02/27 07:10:50;;;;;;;23.60;14.90;;;;;;;-146.29;100.00;59205.81;5029328;28;20998;-69
2024/02/27 07:13:16;;;;;;;18.47;13.37;;;;;;;-146.29;100.00;59205.81;5011197;28;20192;-69
2024/02/27 07:15:42;;;;;;;21.87;14.47;;;;;;;-146.29;100.00;59205.81;5029588;28;20206;-70
2024/02/27 07:18:07;;;;;;;19.27;13.93;;;;;;;-146.29;100.00;59205.81;5038198;28;20454;-69
2024/02/27 07:20:33;;;;;;;24.00;14.87;;;;;;;-146.29;100.00;59205.81;5037379;28;20188;-70
2024/02/27 07:23:00;;;;;;;20.43;14.90;;;;;;;-146.29;100.00;59205.81;5030158;28;20214;-69
2024/02/27 07:25:26;;;;;;;25.50;14.80;;;;;;;-146.29;100.00;59205.81;5029785;28;20254;-68
2024/02/27 07:27:51;;;;;;;18.00;13.40;;;;;;;-146.29;100.00;59205.81;5028319;28;20422;-69
2024/02/27 07:30:17;;;;;;;19.77;14.53;;;;;;;-146.29;100.00;59205.81;5027898;28;20184;-68
2024/02/27 07:32:43;;;;;;;24.57;14.87;;;;;;;-146.29;100.00;59205.81;5027941;28;20191;-70
2024/02/27 07:35:08;;;;;;;20.83;14.10;;;;;;;-146.29;100.00;59205.81;5027410;28;20207;-72
2024/02/27 07:37:34;;;;;;;22.40;14.70;;;;;;;-146.29;100.00;59205.81;5029752;28;20913;-70
2024/02/27 07:40:00;;;;;;;23.97;15.37;;;;;;;-146.29;100.00;59205.81;5028653;28;20628;-70
2024/02/27 07:42:25;;;;;;;23.73;14.10;;;;;;;-146.29;100.00;59205.81;5028437;28;20226;-69
2024/02/27 07:44:50;;;;;;;23.17;15.30;;;;;;;-146.29;100.00;59205.81;5028114;28;20190;-69
2024/02/27 07:47:16;;;;;;;27.40;15.27;;;;;;;-146.29;100.00;59205.81;5011395;28;20222;-69
2024/02/27 07:49:44;;;;;;;26.13;16.60;;;;;;;-146.29;100.00;59205.81;5032097;28;20262;-71
2024/02/27 07:52:09;;;;;;;22.60;14.90;;;;;;;-146.29;100.00;59205.81;5029025;28;20191;-71
2024/02/27 07:54:35;;;;;;;24.90;16.40;;;;;;;-146.29;100.00;59205.81;5031511;28;20521;-70
2024/02/27 07:57:01;;;;;;;26.20;16.07;;;;;;;-146.29;100.00;59205.81;5028048;28;20275;-70
2024/02/27 07:59:26;;;;;;;21.20;15.00;;;;;;;-146.29;100.00;59205.81;5028587;28;20184;-70
2024/02/27 08:01:51;;;;;;;22.10;15.37;;;;;;;-146.29;100.00;59205.81;5027781;28;20179;-70
2024/02/27 08:04:17;;;;;;;22.03;15.00;;;;;;;-146.29;100.00;59205.81;5027382;28;20187;-69
2024/02/27 08:06:43;;;;;;;20.83;15.13;;;;;;;-146.29;100.00;59205.81;5027801;28;20286;-70
2024/02/27 08:09:09;;;;;;;22.60;14.37;;;;;;;-146.29;100.00;59205.81;5037410;28;20188;-70
2024/02/27 08:11:34;;;;;;;23.73;15.07;;;;;;;-146.29;100.00;59205.81;5020355;28;20540;-71
2024/02/27 08:14:01;;;;;;;22.77;14.97;;;;;;;-146.29;100.00;59205.81;5036768;28;20215;-71
2024/02/27 08:16:27;;;;;;;21.47;14.63;;;;;;;-146.29;100.00;59205.81;5028452;28;20281;-71
2024/02/27 08:18:52;;;;;;;22.00;14.20;;;;;;;-146.29;100.00;59205.81;5027061;28;20426;-71
2024/02/27 08:21:18;;;;;;;23.03;15.30;;;;;;;-146.29;100.00;59205.81;5028451;28;20255;-69
2024/02/27 08:23:43;;;;;;;21.43;15.17;;;;;;;-146.29;100.00;59205.81;5029602;28;20267;-70
2024/02/27 08:26:09;;;;;;;18.93;14.77;;;;;;;-146.29;100.00;59205.81;5027263;28;20275;-72
2024/02/27 08:28:34;;;;;;;24.27;14.43;;;;;;;-146.29;100.00;59205.81;5029984;28;20578;-70
2024/02/27 08:31:03;;;;;;;19.23;14.20;;;;;;;-146.29;100.00;59205.81;5035766;28;20266;-70
2024/02/27 08:33:31;;;;;;;26.27;15.47;;;;;;;-146.29;100.00;59205.81;5028480;28;20775;-71
2024/02/27 08:35:56;;;;;;;21.10;16.07;;;;;;;-146.29;100.00;59205.81;5027461;28;20453;-71
2024/02/27 08:38:22;;;;;;;27.20;15.10;;;;;;;-146.29;100.00;59205.81;5028606;28;20423;-69
2024/02/27 08:40:48;;;;;;;26.63;15.80;;;;;;;-146.29;100.00;59205.81;5027546;28;20564;-70
2024/02/27 08:43:14;;;;;;;22.17;16.00;;;;;;;-146.29;100.00;59205.81;5027980;28;20656;-70
2024/02/27 08:45:41;;;;;;;20.90;15.40;;;;;;;-146.29;100.00;59205.81;5030984;28;20214;-70
2024/02/27 08:48:07;;;;;;;23.23;15.53;;;;;;;-146.29;100.00;59205.81;5034908;28;20427;-70
2024/02/27 08:50:32;;;;;;;19.97;15.13;;;;;;;-146.29;100.00;59205.81;5029404;28;20572;-71
2024/02/27 08:52:58;;;;;;;20.83;15.20;;;;;;;-146.29;100.00;59205.81;5009532;28;20188;-70
2024/02/27 08:55:25;;;;;;;20.73;14.33;;;;;;;-146.29;100.00;59205.81;5032168;28;20189;-70
2024/02/27 08:57:53;;;;;;;24.30;16.07;;;;;;;-146.29;100.00;59205.81;5029634;28;20297;-69
2024/02/27 09:00:19;;;;;;;20.83;14.87;;;;;;;-146.29;100.00;59205.81;5023660;28;20781;-70
2024/02/27 09:02:44;;;;;;;24.03;15.03;;;;;;;-146.29;100.00;59205.81;5025739;28;20437;-72
2024/02/27 09:05:10;;;;;;;21.83;16.20;;;;;;;-146.29;100.00;59205.81;5038184;28;20279;-71
2024/02/27 09:07:40;;;;;;;26.73;15.70;;;;;;;-146.29;100.00;59205.81;5033302;28;20219;-71
2024/02/27 09:10:08;;;;;;;23.90;15.77;;;;;;;-146.29;100.00;59205.81;5026321;28;20531;-69
2024/02/27 09:12:33;;;;;;;21.60;15.60;;;;;;;-146.29;100.00;59205.81;5035510;28;20831;-71
2024/02/27 09:14:58;;;;;;;23.17;15.30;;;;;;;-146.29;100.00;59205.81;5036242;28;20442;-70
2024/02/27 09:17:25;;;;;;;22.57;15.67;;;;;;;-146.29;100.00;59205.81;5026798;28;20247;-71
2024/02/27 09:19:51;;;;;;;20.33;15.07;;;;;;;-146.29;100.00;59205.81;5027493;28;20477;-69
2024/02/27 09:22:16;;;;;;;23.87;15.80;;;;;;;-146.29;100.00;59205.81;5028923;28;20281;-70
2024/02/27 09:24:42;;;;;;;23.43;16.20;;;;;;;-146.29;100.00;59205.81;5025151;28;20468;-70
2024/02/27 09:27:08;;;;;;;21.20;16.63;;;;;;;-146.29;100.00;59205.81;5032586;28;20199;-69
2024/02/27 09:29:33;;;;;;;28.73;16.60;;;;;;;-146.29;100.00;59205.81;5034419;28;20190;-71
2024/02/27 09:31:59;;;;;;;21.03;15.43;;;;;;;-146.29;100.00;59205.81;5034732;28;20253;-70
2024/02/27 09:34:24;;;;;;;20.80;15.80;;;;;;;-146.29;100.00;59205.81;5032899;28;20223;-70
2024/02/27 09:36:50;;;;;;;22.37;16.20;;;;;;;-146.29;100.00;59205.81;5024498;28;20273;-70
2024/02/27 09:39:16;;;;;;;24.80;16.67;;;;;;;-146.29;100.00;59205.81;5027919;28;20901;-72
2024/02/27 09:42:11;;;;;;;23.73;16.40;;;;;;;-146.29;100.00;59205.81;5028025;28;20419;-71
2024/02/27 09:44:42;;;;;;;25.30;16.67;;;;;;;-146.29;100.00;59205.81;5025163;28;20282;-72
2024/02/27 09:47:08;;;;;;;24.83;16.40;;;;;;;-146.29;100.00;59205.81;5026913;28;20496;-71
2024/02/27 09:49:45;;;;;;;25.43;16.40;;;;;;;-146.29;100.00;59205.81;5024319;28;20530;-71
2024/02/27 09:52:13;;;;;;;24.07;17.47;;;;;;;-146.29;100.00;59205.81;5033824;28;20426;-70
2024/02/27 09:54:38;;;;;;;37.23;16.93;;;;;;;-146.29;100.00;59205.81;5021839;28;20429;-71
2024/02/27 09:57:04;;;;;;;28.13;19.80;;;;;;;-146.29;100.00;59205.81;5028016;28;20473;-72
2024/02/27 09:59:30;;;;;;;35.03;17.40;;;;;;;-146.29;100.00;59205.81;5016406;28;20184;-71
2024/02/27 10:02:02;;;;;;;32.23;22.83;;;;;;;-146.29;100.00;59205.81;5025444;28;20484;-71
2024/02/27 10:04:28;;;;;;;37.37;25.53;;;;;;;-146.29;100.00;59205.81;5024637;28;20572;-70
2024/02/27 10:06:53;;;;;;;26.90;17.10;;;;;;;-146.29;100.00;59205.81;5028305;28;20466;-68
2024/02/27 10:09:20;;;;;;;27.20;15.93;;;;;;;-146.29;100.00;59205.81;5030960;28;20258;-68
2024/02/27 10:11:47;;;;;;;22.10;15.37;;;;;;;-146.29;100.00;59205.81;5046469;28;20325;-72
2024/02/27 10:14:21;;;;;;;23.73;17.60;;;;;;;-146.29;100.00;59205.81;5038399;28;20469;-70
2024/02/27 10:16:46;;;;;;;23.90;17.37;;;;;;;-146.29;100.00;59205.81;5026971;28;20462;-70
2024/02/27 10:19:12;;;;;;;25.50;18.60;;;;;;;-146.29;100.00;59205.81;5013164;28;20488;-70
2024/02/27 10:21:37;;;;;;;28.87;16.50;;;;;;;-146.29;100.00;59205.81;5031758;28;20187;-71
2024/02/27 10:24:03;;;;;;;23.83;16.60;;;;;;;-146.29;100.00;59205.81;5031747;28;20184;-71
2024/02/27 10:26:28;;;;;;;31.10;17.77;;;;;;;-146.29;100.00;59205.81;5028145;28;20203;-70
2024/02/27 10:28:54;;;;;;;20.27;16.47;;;;;;;-146.29;100.00;59205.81;5029930;28;20189;-70
2024/02/27 10:31:19;;;;;;;24.03;16.23;;;;;;;-146.29;100.00;59205.81;5030482;28;20267;-71
2024/02/27 10:33:47;;;;;;;22.50;16.20;;;;;;;-146.29;100.00;59205.81;5030775;28;20214;-70
2024/02/27 10:36:12;;;;;;;30.70;17.57;;;;;;;-146.29;100.00;59205.81;5028781;28;20226;-71
2024/02/27 10:38:37;;;;;;;27.53;18.30;;;;;;;-146.29;100.00;59205.81;5029511;28;20430;-71
2024/02/27 10:41:03;;;;;;;25.20;16.77;;;;;;;-146.29;100.00;59205.81;5040618;28;20195;-71
2024/02/27 10:43:32;;;;;;;25.87;16.60;;;;;;;-146.29;100.00;59205.81;5038685;28;20175;-69
2024/02/27 10:45:57;;;;;;;30.00;20.20;;;;;;;-146.29;100.00;59205.81;5034992;28;20207;-71
2024/02/27 10:48:23;;;;;;;20.97;16.60;;;;;;;-146.29;100.00;59205.81;5029251;28;20458;-70
2024/02/27 10:50:48;;;;;;;30.03;16.97;;;;;;;-146.29;100.00;59205.81;5029409;28;20262;-71
2024/02/27 10:53:14;;;;;;;24.70;16.80;;;;;;;-146.29;100.00;59205.81;5028669;28;20255;-71
2024/02/27 10:55:40;;;;;;;27.90;16.87;;;;;;;-146.29;100.00;59205.81;5035937;28;20187;-71